Wading River, NY (11792)

7:47 PM EST on February 05, 2016 (GMT -0500)
Wildwood Hills | | Change Station
CLOSE
Current Station
Personal Weather Station
Location: Wading River, NY
Elevation: 128 ft
Nearby Weather Stations

Elev 128 ft 40.97 °N, 72.81 °W | Updated 17 seconds ago

Clear
Clear
35.1 °F
Feels Like 35 °F
N
2.2
Wind Variable Wind from SW
Gusts 6.0 mph

Today
High -- | Low -- °F
--% Chance of Precip.
Yesterday
High -- | Low -- °F
Precip. -- in
Pressure 30.22 in
Visibility 10.0 miles
Clouds Clear
Windchill 35 °F
Dew Point 19 °F
Humidity 52%
Rainfall 0.22 in
Snow Depth Not available.
6:58 AM 5:12 PM
Waning Crescent, 8% visible
METAR KHWV 052356Z AUTO 31006KT 10SM CLR M01/M06 A3022 RMK AO2 SLP233 60004 T10111061 10022 21022 53040 TSNO
Pressure 30.22 in
Visibility 10.0 miles
Clouds Clear
Windchill 35 °F
Dew Point 19 °F
Humidity 52%
Rainfall 0.22 in
Snow Depth Not available.
6:58 AM 5:12 PM
Waning Crescent, 8% visible
METAR KHWV 052356Z AUTO 31006KT 10SM CLR M01/M06 A3022 RMK AO2 SLP233 60004 T10111061 10022 21022 53040 TSNO

10-Day Weather Forecast

Almanac

Astronomy

Feb. 05, 2016 Rise Set
Actual Time
Civil Twilight
Nautical Twilight
Astronomical Twilight
Moon
Length of Visible Light
Length of Day
Tomorrow will be .
, % of the Moon is Illuminated

Today's Extremes

State Highs State Lows

Community

WunderPhotos

Upload Photos

1,890,900 photos uploaded!

WunderBlog® & News

Nearby

Air Quality

  Air Quality AQ Index Pollutant
Not available.

Snow Depth

Station Depth Elevation

Earthquake Activity

City Distance Mag. Time & Date
Minimum magnitude displayed is 2.5.

Coastal Water Temperatures

Place Temperature

Stations

Nearby Weather Stations

Station Location Temp. Windchill Dew Point Humidity Wind Precip. Elev Updated Type
                   

Watches & Warnings

Special Statement
Issued: 2:51 PM EST Feb. 5, 2016 – National Weather Service

... Gusty winds will continue to bring down snow laden tree limbs
and power lines into early this evening...

The heavy wet snowfall... combined with moderate northerly winds
of 10 to 20 mph with gusts into the 30s... will continue to down
tree limbs and power lines into early this evening. Those
venturing out are urged to be cognizant of this dangerous and
potentially deadly hazard.



251 PM EST Fri Feb 5 2016

... Gusty winds will continue to bring down snow laden tree limbs
and power lines into early this evening...

The heavy wet snowfall... combined with moderate northerly winds
of 10 to 20 mph with gusts into the 30s... will continue to down
tree limbs and power lines into early this evening. Those
venturing out are urged to be cognizant of this dangerous and
potentially deadly hazard.